Time;durP1;ratioP1;P1;durP2;ratioP2;P2;SDS_P1;SDS_P2;PMS_P1;PMS_P2;Temp;Humidity;BMP_temperature;BMP_pressure;BME280_temperature;BME280_humidity;BME280_pressure;Samples;Min_cycle;Max_cycle;Signal;HPM_P1;HPM_P2
2023/06/19 00:01:03;;;;;;;0.50;0.30;;;23.40;99.90;;;;;;5027275;28;20469;-82
2023/06/19 00:03:29;;;;;;;0.80;0.80;;;23.30;99.90;;;;;;5028274;28;20450;-82
2023/06/19 00:05:56;;;;;;;0.50;0.30;;;23.30;99.90;;;;;;5025927;28;20461;-82
2023/06/19 00:08:23;;;;;;;0.50;0.40;;;23.20;99.90;;;;;;5024790;28;20447;-82
2023/06/19 00:10:51;;;;;;;0.50;0.30;;;23.10;99.90;;;;;;5025494;28;20439;-82
2023/06/19 00:13:18;;;;;;;0.60;0.60;;;23.00;99.90;;;;;;5027116;28;20453;-82
2023/06/19 00:15:46;;;;;;;0.60;0.50;;;22.90;99.90;;;;;;5026967;28;20457;-81
2023/06/19 00:18:13;;;;;;;0.50;0.30;;;22.90;99.90;;;;;;5024373;28;20475;-82
2023/06/19 00:20:40;;;;;;;0.50;0.30;;;22.80;99.90;;;;;;5024143;28;20723;-82
2023/06/19 00:23:10;;;;;;;0.50;0.30;;;22.70;99.90;;;;;;5027878;28;20473;-82
2023/06/19 00:25:37;;;;;;;0.50;0.30;;;22.60;99.90;;;;;;5029278;28;20500;-82
2023/06/19 00:28:13;;;;;;;0.50;0.30;;;22.50;99.90;;;;;;5025790;28;20466;-83
2023/06/19 00:30:40;;;;;;;0.50;0.37;;;22.50;99.90;;;;;;5026229;28;20446;-81
2023/06/19 00:33:07;;;;;;;0.50;0.30;;;22.40;99.90;;;;;;5027758;28;20441;-82
2023/06/19 00:35:35;;;;;;;0.50;0.30;;;22.40;99.90;;;;;;5029038;28;21019;-82
2023/06/19 00:38:01;;;;;;;0.50;0.40;;;22.30;99.90;;;;;;5026334;28;20561;-83
2023/06/19 00:40:32;;;;;;;0.50;0.30;;;22.30;99.90;;;;;;5024800;28;20894;-82
2023/06/19 00:42:59;;;;;;;8.43;2.63;;;22.30;99.90;;;;;;5023612;28;20446;-81
2023/06/19 00:45:27;;;;;;;0.50;0.30;;;22.30;99.90;;;;;;5024359;28;20490;-81
2023/06/19 00:47:55;;;;;;;0.60;0.50;;;22.20;99.90;;;;;;5024851;28;20450;-82
2023/06/19 00:50:22;;;;;;;3.10;1.20;;;22.20;99.90;;;;;;5027297;28;20450;-82
2023/06/19 00:52:49;;;;;;;0.50;0.30;;;22.20;99.90;;;;;;5025653;28;20446;-82
2023/06/19 00:55:17;;;;;;;0.50;0.30;;;22.10;99.90;;;;;;5023411;28;20979;-82
2023/06/19 00:57:44;;;;;;;0.50;0.30;;;22.10;99.90;;;;;;5023832;28;20578;-82
2023/06/19 01:00:12;;;;;;;0.50;0.30;;;22.10;99.90;;;;;;5027768;28;20449;-82
2023/06/19 01:02:41;;;;;;;1.43;0.60;;;22.10;99.90;;;;;;5019936;28;20478;-82
2023/06/19 01:05:08;;;;;;;0.50;0.30;;;22.10;99.90;;;;;;5026298;28;20853;-82
2023/06/19 01:07:45;;;;;;;0.50;0.30;;;22.20;99.90;;;;;;5027078;28;20454;-82
2023/06/19 01:10:15;;;;;;;0.50;0.30;;;22.10;99.90;;;;;;5023709;28;20438;-82
2023/06/19 01:12:52;;;;;;;0.50;0.40;;;22.10;99.90;;;;;;5023945;28;20930;-82
2023/06/19 01:15:19;;;;;;;0.50;0.40;;;22.10;99.90;;;;;;5026686;28;20553;-82
2023/06/19 01:17:48;;;;;;;0.50;0.30;;;22.00;99.90;;;;;;5024923;28;20500;-82
2023/06/19 01:20:15;;;;;;;0.50;0.30;;;22.00;99.90;;;;;;5012837;28;20675;-81
2023/06/19 01:22:44;;;;;;;0.50;0.30;;;22.00;99.90;;;;;;5020388;28;20965;-81
2023/06/19 01:25:13;;;;;;;0.50;0.43;;;21.90;99.90;;;;;;5023059;28;20473;-81
2023/06/19 01:27:42;;;;;;;1.13;1.13;;;22.00;99.90;;;;;;5023491;28;20933;-78
2023/06/19 01:30:11;;;;;;;0.50;0.37;;;22.00;99.90;;;;;;5019973;28;20930;-81
2023/06/19 01:32:45;;;;;;;0.50;0.30;;;22.00;99.90;;;;;;5020623;28;20447;-83
2023/06/19 01:35:13;;;;;;;0.50;0.30;;;21.90;99.90;;;;;;5023851;28;20836;-81
2023/06/19 01:37:42;;;;;;;0.50;0.30;;;21.80;99.90;;;;;;5023800;28;20445;-81
2023/06/19 01:40:12;;;;;;;0.53;0.37;;;21.80;99.90;;;;;;5020297;28;20566;-81
2023/06/19 01:42:40;;;;;;;0.50;0.40;;;21.80;99.90;;;;;;5020304;28;20501;-82
2023/06/19 01:45:08;;;;;;;0.50;0.30;;;21.70;99.90;;;;;;5022084;28;20838;-81
2023/06/19 01:47:35;;;;;;;0.50;0.30;;;21.80;99.90;;;;;;5023162;28;20449;-81
2023/06/19 01:50:02;;;;;;;0.50;0.30;;;21.80;99.90;;;;;;5022919;28;20450;-81
2023/06/19 01:52:29;;;;;;;0.50;0.30;;;21.70;99.90;;;;;;5023379;28;20453;-81
2023/06/19 01:54:56;;;;;;;0.50;0.40;;;21.60;99.90;;;;;;5023850;28;20954;-81
2023/06/19 01:57:24;;;;;;;0.50;0.30;;;21.60;99.90;;;;;;5023447;28;20446;-81
2023/06/19 01:59:51;;;;;;;0.50;0.30;;;21.60;99.90;;;;;;5023476;28;20478;-83
2023/06/19 02:02:18;;;;;;;0.50;0.30;;;21.60;99.90;;;;;;5021204;28;20454;-82
2023/06/19 02:04:45;;;;;;;1.33;1.07;;;21.60;99.90;;;;;;5020850;28;20463;-81
2023/06/19 02:07:12;;;;;;;0.50;0.40;;;21.60;99.90;;;;;;5024706;28;20450;-82
2023/06/19 02:09:39;;;;;;;0.50;0.30;;;21.60;99.90;;;;;;5028450;28;20445;-81
2023/06/19 02:12:07;;;;;;;0.50;0.30;;;21.60;99.90;;;;;;5028298;28;20468;-82
2023/06/19 02:14:35;;;;;;;0.50;0.30;;;21.60;99.90;;;;;;5029205;28;20465;-81
2023/06/19 02:17:02;;;;;;;0.50;0.50;;;21.60;99.90;;;;;;5025423;28;20526;-81
2023/06/19 02:19:28;;;;;;;1.27;0.60;;;21.60;99.90;;;;;;5023725;28;20478;-81
2023/06/19 02:21:55;;;;;;;0.50;0.30;;;21.50;99.90;;;;;;5024186;28;20447;-81
2023/06/19 02:24:22;;;;;;;0.77;0.77;;;21.60;99.90;;;;;;5026887;28;20476;-81
2023/06/19 02:26:49;;;;;;;8.53;2.47;;;21.60;99.90;;;;;;5028210;28;20442;-81
2023/06/19 02:29:15;;;;;;;0.83;0.83;;;21.60;99.90;;;;;;5015892;28;20443;-82
2023/06/19 02:31:45;;;;;;;2.40;1.27;;;21.70;99.90;;;;;;5023785;28;20438;-81
2023/06/19 02:34:11;;;;;;;0.50;0.30;;;21.70;99.90;;;;;;5023391;28;20467;-82
2023/06/19 02:36:38;;;;;;;0.50;0.40;;;21.60;99.90;;;;;;5024346;28;20443;-81
2023/06/19 02:39:05;;;;;;;1.60;1.50;;;21.70;99.90;;;;;;5025993;28;20480;-82
2023/06/19 02:41:32;;;;;;;1.83;0.83;;;21.70;99.90;;;;;;5027509;28;20446;-81
2023/06/19 02:43:59;;;;;;;0.50;0.30;;;21.70;99.90;;;;;;5025627;28;20461;-81
2023/06/19 02:46:26;;;;;;;1.03;0.93;;;21.70;99.90;;;;;;5024079;28;20443;-81
2023/06/19 02:48:54;;;;;;;0.50;0.33;;;21.80;99.90;;;;;;5022720;28;20530;-80
2023/06/19 02:51:21;;;;;;;0.60;0.50;;;21.80;99.90;;;;;;5025997;28;20473;-81
2023/06/19 02:53:47;;;;;;;0.70;0.40;;;21.80;99.90;;;;;;5024594;28;20447;-81
2023/06/19 02:56:14;;;;;;;0.60;0.60;;;21.80;99.90;;;;;;5026097;28;20438;-81
2023/06/19 02:58:41;;;;;;;0.60;0.40;;;21.80;99.90;;;;;;5025618;28;20478;-81
2023/06/19 03:01:08;;;;;;;1.07;0.70;;;21.80;99.90;;;;;;5026838;28;20447;-81
2023/06/19 03:03:37;;;;;;;1.87;0.63;;;21.80;99.90;;;;;;5027839;28;20450;-81
2023/06/19 03:06:07;;;;;;;1.00;0.90;;;21.70;99.90;;;;;;5025531;28;20523;-81
2023/06/19 03:08:34;;;;;;;0.77;0.77;;;21.70;99.90;;;;;;5021006;28;20468;-81
2023/06/19 03:11:04;;;;;;;0.60;0.57;;;21.70;99.90;;;;;;5026924;28;20545;-81
2023/06/19 03:13:30;;;;;;;0.70;0.70;;;21.70;99.90;;;;;;5026228;28;20447;-82
2023/06/19 03:15:57;;;;;;;1.40;1.30;;;21.70;99.90;;;;;;5026576;28;20462;-82
2023/06/19 03:18:24;;;;;;;0.50;0.30;;;21.60;99.90;;;;;;5024794;28;20482;-83
2023/06/19 03:20:51;;;;;;;1.13;1.13;;;21.60;99.90;;;;;;5026701;28;20439;-82
2023/06/19 03:23:19;;;;;;;0.50;0.30;;;21.60;99.90;;;;;;5034789;28;20561;-82
2023/06/19 03:25:45;;;;;;;0.57;0.53;;;21.60;99.90;;;;;;5023196;28;20468;-82
2023/06/19 03:28:12;;;;;;;0.50;0.50;;;21.60;99.90;;;;;;5023970;28;20817;-82
2023/06/19 03:30:39;;;;;;;0.90;0.60;;;21.60;99.90;;;;;;5027364;28;20457;-82
2023/06/19 03:33:06;;;;;;;0.50;0.40;;;21.60;99.90;;;;;;5025762;28;20810;-82
2023/06/19 03:35:32;;;;;;;1.00;0.80;;;21.70;99.90;;;;;;5028338;28;20844;-82
2023/06/19 03:37:59;;;;;;;0.50;0.40;;;21.70;99.90;;;;;;5026806;28;20829;-82
2023/06/19 03:40:27;;;;;;;2.70;1.23;;;21.60;99.90;;;;;;5025027;28;20492;-82
2023/06/19 03:42:54;;;;;;;1.37;0.60;;;21.50;99.90;;;;;;5025432;28;20877;-83
2023/06/19 03:45:21;;;;;;;0.60;0.50;;;21.50;99.90;;;;;;5016772;28;20462;-83
2023/06/19 03:47:48;;;;;;;1.87;0.90;;;21.40;99.90;;;;;;5025009;28;20534;-84
2023/06/19 03:50:14;;;;;;;1.43;1.17;;;21.40;99.90;;;;;;5033703;28;20438;-84
2023/06/19 03:52:41;;;;;;;0.93;0.93;;;21.40;99.90;;;;;;5026157;28;20443;-83
2023/06/19 03:55:08;;;;;;;2.37;2.17;;;21.40;99.90;;;;;;5025920;28;20509;-83
2023/06/19 03:57:36;;;;;;;0.50;0.30;;;21.40;99.90;;;;;;5023591;28;20821;-83
2023/06/19 04:00:07;;;;;;;0.50;0.47;;;21.30;99.90;;;;;;5028103;28;20469;-83
2023/06/19 04:02:34;;;;;;;1.07;0.97;;;21.30;99.90;;;;;;5030392;28;20445;-82
2023/06/19 04:05:01;;;;;;;0.90;0.63;;;21.30;99.90;;;;;;5027721;28;20558;-83
2023/06/19 04:07:28;;;;;;;0.50;0.30;;;21.30;99.90;;;;;;5025468;28;20883;-84
2023/06/19 04:09:55;;;;;;;0.50;0.30;;;21.30;99.90;;;;;;5024979;28;20500;-83
2023/06/19 04:12:21;;;;;;;0.70;0.70;;;21.20;99.90;;;;;;5025267;28;20457;-83
2023/06/19 04:14:49;;;;;;;0.73;0.73;;;21.20;99.90;;;;;;5024424;28;20469;-83
2023/06/19 04:17:16;;;;;;;0.50;0.40;;;21.20;99.90;;;;;;5026924;28;21241;-82
2023/06/19 04:19:43;;;;;;;2.70;0.90;;;21.10;99.90;;;;;;5026968;28;20473;-81
2023/06/19 04:22:10;;;;;;;0.50;0.30;;;21.10;99.90;;;;;;5026280;28;20446;-81
2023/06/19 04:24:37;;;;;;;0.60;0.40;;;21.10;99.90;;;;;;5026268;28;20466;-83
2023/06/19 04:27:04;;;;;;;0.87;0.70;;;21.10;99.90;;;;;;5017393;28;20443;-81
2023/06/19 04:29:31;;;;;;;0.50;0.40;;;21.10;99.90;;;;;;5025186;28;21092;-81
2023/06/19 04:32:00;;;;;;;2.10;1.07;;;21.00;99.90;;;;;;5024976;28;20510;-78
2023/06/19 04:34:26;;;;;;;3.87;1.10;;;21.00;99.90;;;;;;5021461;28;20466;-80
2023/06/19 04:36:53;;;;;;;0.50;0.30;;;21.00;99.90;;;;;;5021076;28;20449;-81
2023/06/19 04:39:20;;;;;;;0.50;0.30;;;21.00;99.90;;;;;;5024450;28;21012;-79
2023/06/19 04:41:47;;;;;;;0.77;0.77;;;20.90;99.90;;;;;;5025193;28;20499;-81
2023/06/19 04:44:14;;;;;;;0.60;0.60;;;20.90;99.90;;;;;;5022202;28;21000;-81
2023/06/19 04:46:41;;;;;;;0.50;0.40;;;20.90;99.90;;;;;;5021106;28;20451;-79
2023/06/19 04:49:09;;;;;;;1.90;0.70;;;20.90;99.90;;;;;;5023057;28;20447;-81
2023/06/19 04:51:37;;;;;;;1.13;0.83;;;20.80;99.90;;;;;;5025184;28;20454;-82
2023/06/19 04:54:04;;;;;;;0.60;0.50;;;20.70;99.90;;;;;;5024326;28;20480;-80
2023/06/19 04:56:30;;;;;;;2.00;1.50;;;20.60;99.90;;;;;;5021751;28;20482;-81
2023/06/19 04:58:59;;;;;;;1.07;1.07;;;20.60;99.90;;;;;;5022271;28;20492;-81
2023/06/19 05:01:28;;;;;;;0.50;0.40;;;20.60;99.90;;;;;;5014036;28;20450;-80
2023/06/19 05:03:56;;;;;;;0.90;0.60;;;20.60;99.90;;;;;;5020495;28;20444;-80
2023/06/19 05:06:24;;;;;;;0.50;0.30;;;20.60;99.90;;;;;;5021096;28;20447;-80
2023/06/19 05:08:52;;;;;;;0.50;0.30;;;20.60;99.90;;;;;;5021821;28;20443;-80
2023/06/19 05:11:19;;;;;;;0.50;0.30;;;20.50;99.90;;;;;;5024230;28;20869;-81
2023/06/19 05:13:46;;;;;;;0.80;0.80;;;20.50;99.90;;;;;;5026449;28;20444;-81
2023/06/19 05:16:16;;;;;;;1.03;0.50;;;20.60;99.90;;;;;;5017875;28;20443;-80
2023/06/19 05:18:43;;;;;;;0.83;0.73;;;20.70;99.90;;;;;;5026981;28;20434;-81
2023/06/19 05:21:10;;;;;;;1.13;1.03;;;20.70;99.90;;;;;;5018980;28;20500;-81
2023/06/19 05:23:39;;;;;;;0.50;0.40;;;20.70;99.90;;;;;;5026833;28;20952;-81
2023/06/19 05:26:06;;;;;;;0.50;0.30;;;20.80;99.90;;;;;;5026574;28;20826;-82
2023/06/19 05:28:32;;;;;;;0.50;0.40;;;20.90;99.90;;;;;;5026614;28;20442;-82
2023/06/19 05:30:59;;;;;;;1.33;1.23;;;21.00;99.90;;;;;;5027176;28;20443;-82
2023/06/19 05:33:26;;;;;;;1.30;0.90;;;20.80;99.90;;;;;;5023262;28;20734;-81
2023/06/19 05:35:54;;;;;;;0.50;0.30;;;20.70;99.90;;;;;;5023233;28;20474;-81
2023/06/19 05:38:21;;;;;;;0.80;0.80;;;20.60;99.90;;;;;;5024438;28;20918;-81
2023/06/19 05:40:49;;;;;;;0.67;0.67;;;20.50;99.90;;;;;;5025938;28;20480;-79
2023/06/19 05:43:16;;;;;;;0.80;0.70;;;20.60;99.90;;;;;;5033759;28;20497;-82
2023/06/19 05:45:42;;;;;;;0.70;0.70;;;20.70;99.90;;;;;;5029864;28;20958;-81
2023/06/19 05:48:09;;;;;;;0.50;0.30;;;20.70;99.90;;;;;;5028470;28;20468;-81
2023/06/19 05:50:36;;;;;;;3.03;0.93;;;20.80;99.90;;;;;;5033706;28;20439;-81
2023/06/19 05:53:02;;;;;;;0.70;0.70;;;20.90;99.90;;;;;;5027316;28;20922;-81
2023/06/19 05:55:29;;;;;;;2.60;1.57;;;20.90;99.90;;;;;;5031161;28;20466;-81
2023/06/19 05:57:58;;;;;;;0.83;0.77;;;20.90;99.90;;;;;;5023508;28;20957;-81
2023/06/19 06:00:24;;;;;;;0.50;0.30;;;21.00;99.90;;;;;;5034565;28;20501;-81
2023/06/19 06:02:51;;;;;;;0.50;0.40;;;21.00;99.90;;;;;;5026001;28;20457;-80
2023/06/19 06:05:20;;;;;;;0.67;0.67;;;21.10;99.90;;;;;;5028350;28;20496;-81
2023/06/19 06:07:47;;;;;;;0.50;0.30;;;21.20;99.90;;;;;;5034240;28;20454;-81
2023/06/19 06:10:14;;;;;;;0.80;0.80;;;21.20;99.90;;;;;;5033506;28;20446;-81
2023/06/19 06:12:40;;;;;;;0.77;0.77;;;21.20;99.90;;;;;;5031803;28;20489;-82
2023/06/19 06:15:09;;;;;;;0.50;0.30;;;21.30;99.90;;;;;;5032172;28;20501;-80
2023/06/19 06:17:36;;;;;;;0.60;0.40;;;21.20;99.90;;;;;;5032135;28;20438;-82
2023/06/19 06:20:08;;;;;;;0.73;0.60;;;21.20;99.90;;;;;;5028630;28;20493;-81
2023/06/19 06:22:35;;;;;;;0.50;0.40;;;21.20;99.90;;;;;;5014313;28;20864;-81
2023/06/19 06:25:02;;;;;;;0.97;0.70;;;21.20;99.90;;;;;;5029695;28;20968;-80
2023/06/19 06:27:29;;;;;;;0.93;0.77;;;21.20;99.90;;;;;;5025149;28;20442;-82
2023/06/19 06:29:55;;;;;;;0.60;0.40;;;21.10;99.90;;;;;;5025930;28;20795;-80
2023/06/19 06:32:23;;;;;;;2.17;1.80;;;21.10;99.90;;;;;;5027438;28;20449;-81
2023/06/19 06:34:50;;;;;;;0.77;0.50;;;21.10;99.90;;;;;;5029490;28;20544;-81
2023/06/19 06:37:22;;;;;;;0.60;0.60;;;21.10;99.90;;;;;;5027189;28;20537;-80
2023/06/19 06:39:49;;;;;;;0.50;0.30;;;21.00;99.90;;;;;;5025705;28;20486;-79
2023/06/19 06:42:15;;;;;;;0.97;0.83;;;21.10;99.90;;;;;;5026036;28;20447;-83
2023/06/19 06:44:42;;;;;;;0.50;0.30;;;21.10;99.90;;;;;;5026559;28;20471;-81
2023/06/19 06:47:09;;;;;;;0.60;0.50;;;21.10;99.90;;;;;;5025928;28;20889;-84
2023/06/19 06:49:37;;;;;;;0.50;0.30;;;21.10;99.90;;;;;;5028587;28;20452;-83
2023/06/19 06:52:04;;;;;;;1.00;0.70;;;21.00;99.90;;;;;;5029204;28;20446;-81
2023/06/19 06:54:31;;;;;;;1.00;0.90;;;21.00;99.90;;;;;;5016038;28;20471;-81
2023/06/19 06:56:59;;;;;;;6.07;0.70;;;20.90;99.90;;;;;;5027960;28;20447;-82
2023/06/19 06:59:27;;;;;;;0.60;0.40;;;20.90;99.90;;;;;;5028875;28;20480;-83
2023/06/19 07:01:53;;;;;;;0.50;0.40;;;20.90;99.90;;;;;;5028758;28;20496;-82
2023/06/19 07:04:20;;;;;;;0.93;0.60;;;20.90;99.90;;;;;;5025867;28;20470;-82
2023/06/19 07:06:49;;;;;;;0.60;0.40;;;20.90;99.90;;;;;;5024403;28;20554;-82
2023/06/19 07:09:16;;;;;;;0.50;0.40;;;20.80;99.90;;;;;;5027357;28;20450;-82
2023/06/19 07:11:42;;;;;;;0.50;0.40;;;20.80;99.90;;;;;;5028337;28;20446;-83
2023/06/19 07:14:09;;;;;;;0.50;0.30;;;20.90;99.90;;;;;;5027511;28;20458;-82
2023/06/19 07:16:36;;;;;;;0.80;0.80;;;20.90;99.90;;;;;;5024887;28;20446;-82
2023/06/19 07:19:03;;;;;;;0.70;0.40;;;21.00;99.90;;;;;;5025213;28;20439;-82
2023/06/19 07:21:31;;;;;;;0.50;0.40;;;21.00;99.90;;;;;;5026868;28;20482;-82
2023/06/19 07:24:00;;;;;;;0.60;0.50;;;21.00;99.90;;;;;;5028230;28;20467;-81
2023/06/19 07:26:27;;;;;;;0.93;0.93;;;20.90;99.90;;;;;;5026993;28;20455;-82
2023/06/19 07:28:54;;;;;;;2.63;2.33;;;20.90;99.90;;;;;;5030275;28;20444;-82
2023/06/19 07:31:21;;;;;;;0.60;0.40;;;20.70;99.90;;;;;;5026138;28;20441;-82
2023/06/19 07:33:47;;;;;;;1.03;0.93;;;20.50;99.90;;;;;;5029889;28;20453;-82
2023/06/19 07:36:15;;;;;;;0.73;0.67;;;20.30;99.90;;;;;;5026235;28;20441;-82
2023/06/19 07:38:43;;;;;;;0.53;0.53;;;20.20;99.90;;;;;;5023781;28;20465;-82
2023/06/19 07:41:11;;;;;;;1.33;1.23;;;20.10;99.90;;;;;;5023198;28;20497;-81
2023/06/19 07:43:38;;;;;;;0.50;0.40;;;20.10;99.90;;;;;;5023242;28;20451;-82
2023/06/19 07:46:05;;;;;;;1.27;1.17;;;20.10;99.90;;;;;;5022911;28;20449;-82
2023/06/19 07:48:32;;;;;;;0.77;0.50;;;20.20;99.90;;;;;;5025989;28;20798;-82
2023/06/19 07:50:59;;;;;;;0.50;0.30;;;20.30;99.90;;;;;;5026789;28;20449;-82
2023/06/19 07:53:25;;;;;;;0.70;0.50;;;20.50;99.90;;;;;;5024285;28;20457;-82
2023/06/19 07:55:52;;;;;;;0.50;0.50;;;20.60;99.90;;;;;;5023374;28;20467;-82
2023/06/19 07:58:20;;;;;;;0.50;0.40;;;20.80;99.90;;;;;;5024396;28;20451;-82
2023/06/19 08:00:47;;;;;;;0.50;0.30;;;21.10;99.90;;;;;;5026264;28;20496;-83
2023/06/19 08:03:14;;;;;;;1.77;1.67;;;21.10;99.90;;;;;;5026716;28;20456;-82
2023/06/19 08:05:41;;;;;;;1.63;0.93;;;21.10;99.90;;;;;;5023644;28;20465;-82
2023/06/19 08:08:07;;;;;;;1.00;0.80;;;21.10;99.90;;;;;;5024440;28;20442;-82
2023/06/19 08:10:34;;;;;;;1.13;1.10;;;21.10;99.90;;;;;;5026779;28;20444;-82
2023/06/19 08:13:01;;;;;;;0.50;0.30;;;21.10;99.90;;;;;;5028582;28;20454;-82
2023/06/19 08:15:29;;;;;;;0.70;0.63;;;21.10;99.90;;;;;;5023748;28;20492;-81
2023/06/19 08:17:56;;;;;;;1.90;1.80;;;21.00;99.90;;;;;;5024233;28;20443;-81
2023/06/19 08:20:22;;;;;;;0.60;0.60;;;21.00;99.90;;;;;;5024445;28;20482;-82
2023/06/19 08:22:49;;;;;;;0.50;0.40;;;21.10;99.90;;;;;;5026094;28;20450;-83
2023/06/19 08:25:16;;;;;;;0.50;0.40;;;21.30;99.90;;;;;;5025434;28;20476;-81
2023/06/19 08:27:45;;;;;;;0.60;0.50;;;21.60;99.90;;;;;;5026154;28;20446;-82
2023/06/19 08:30:12;;;;;;;0.50;0.40;;;21.70;99.90;;;;;;5025799;28;20457;-82
2023/06/19 08:32:40;;;;;;;0.87;0.47;;;21.80;99.90;;;;;;5022354;28;20445;-82
2023/06/19 08:35:07;;;;;;;0.80;0.60;;;22.10;99.90;;;;;;5023215;28;20846;-82
2023/06/19 08:37:34;;;;;;;0.63;0.40;;;23.10;99.90;;;;;;5024682;28;20448;-82
2023/06/19 08:40:02;;;;;;;1.43;0.87;;;24.00;99.90;;;;;;5024818;28;20485;-80
2023/06/19 08:42:29;;;;;;;0.50;0.30;;;24.60;99.90;;;;;;5022213;28;20442;-81
2023/06/19 08:44:56;;;;;;;0.60;0.60;;;25.00;99.90;;;;;;5021513;28;20463;-82
2023/06/19 08:47:22;;;;;;;0.50;0.40;;;25.60;99.90;;;;;;5021277;28;20445;-81
2023/06/19 08:49:51;;;;;;;1.13;0.70;;;25.60;99.90;;;;;;5022763;28;20443;-80
2023/06/19 08:52:17;;;;;;;0.50;0.37;;;25.60;99.90;;;;;;5024504;28;20443;-82
2023/06/19 08:54:44;;;;;;;0.90;0.90;;;25.40;99.90;;;;;;5026593;28;20909;-81
2023/06/19 08:57:12;;;;;;;0.60;0.60;;;25.60;99.90;;;;;;5027826;28;20546;-83
2023/06/19 08:59:38;;;;;;;1.13;0.80;;;25.20;99.90;;;;;;5015867;28;20497;-83
2023/06/19 09:02:07;;;;;;;0.93;0.93;;;24.70;99.90;;;;;;5023637;28;20471;-83
2023/06/19 09:04:34;;;;;;;0.50;0.30;;;24.40;99.90;;;;;;5026297;28;20477;-83
2023/06/19 09:07:04;;;;;;;1.00;0.80;;;23.90;99.90;;;;;;5025579;28;20530;-82
2023/06/19 09:09:32;;;;;;;0.70;0.50;;;23.50;99.90;;;;;;5016668;28;20443;-82
2023/06/19 09:12:03;;;;;;;1.57;1.07;;;23.40;99.90;;;;;;5025776;28;20816;-83
2023/06/19 09:14:34;;;;;;;1.00;1.00;;;23.40;99.90;;;;;;5026420;28;20466;-82
2023/06/19 09:17:02;;;;;;;0.60;0.43;;;23.50;99.90;;;;;;5019270;28;20439;-82
2023/06/19 09:19:29;;;;;;;1.90;1.80;;;23.70;99.90;;;;;;5024041;28;20466;-82
2023/06/19 09:22:02;;;;;;;0.60;0.50;;;23.60;99.90;;;;;;5025421;28;20481;-82
2023/06/19 09:24:36;;;;;;;3.77;1.00;;;24.10;99.90;;;;;;5022569;28;20472;-82
2023/06/19 09:27:08;;;;;;;1.00;1.00;;;24.50;99.90;;;;;;5028169;28;20426;-82
2023/06/19 09:29:38;;;;;;;0.50;0.30;;;24.90;99.90;;;;;;5022953;28;20858;-80
2023/06/19 09:32:18;;;;;;;1.43;0.90;;;25.10;99.90;;;;;;5030259;28;20461;-83
2023/06/19 09:34:45;;;;;;;1.10;1.00;;;25.30;99.90;;;;;;5025643;28;20458;-82
2023/06/19 09:37:14;;;;;;;0.83;0.83;;;25.40;99.90;;;;;;5024584;28;20438;-80
2023/06/19 09:39:41;;;;;;;1.60;1.50;;;25.40;99.90;;;;;;5024437;28;20434;-81
2023/06/19 09:42:09;;;;;;;0.70;0.40;;;25.60;99.90;;;;;;5023761;28;21015;-82
2023/06/19 09:44:42;;;;;;;0.63;0.63;;;25.20;99.90;;;;;;5021843;28;20837;-80
2023/06/19 09:47:20;;;;;;;4.77;3.20;;;25.00;99.90;;;;;;5025321;28;20446;-81
2023/06/19 09:49:51;;;;;;;0.80;0.50;;;24.70;99.90;;;;;;5015795;28;20459;-80
2023/06/19 09:52:22;;;;;;;0.50;0.30;;;24.60;99.90;;;;;;5022544;28;20869;-81
2023/06/19 09:54:50;;;;;;;1.50;1.40;;;24.60;99.90;;;;;;5029032;28;20548;-81
2023/06/19 09:57:17;;;;;;;0.50;0.30;;;24.80;99.90;;;;;;5021737;28;20449;-81
2023/06/19 09:59:45;;;;;;;0.50;0.37;;;25.10;99.90;;;;;;5027284;28;20465;-81
2023/06/19 10:02:12;;;;;;;3.50;3.30;;;25.30;99.90;;;;;;5026183;28;20474;-81
2023/06/19 10:04:47;;;;;;;0.63;0.63;;;25.50;99.90;;;;;;5022546;28;20482;-81
2023/06/19 10:07:20;;;;;;;1.17;0.80;;;25.70;99.90;;;;;;5022427;28;20500;-81
2023/06/19 10:10:00;;;;;;;0.70;0.70;;;26.00;99.90;;;;;;5015419;28;20445;-81
2023/06/19 10:12:38;;;;;;;0.50;0.30;;;27.00;99.90;;;;;;5023438;28;20452;-81
2023/06/19 10:15:14;;;;;;;0.70;0.63;;;27.80;99.90;;;;;;5026440;28;20470;-82
2023/06/19 10:17:47;;;;;;;0.70;0.40;;;28.90;99.90;;;;;;5022747;28;20940;-81
2023/06/19 10:20:31;;;;;;;0.53;0.50;;;29.40;95.60;;;;;;5023706;28;20450;-81
2023/06/19 10:23:03;;;;;;;0.50;0.30;;;29.50;94.00;;;;;;5018421;28;20449;-80
2023/06/19 10:25:31;;;;;;;0.60;0.40;;;30.70;92.60;;;;;;5024014;28;20471;-82
2023/06/19 10:27:59;;;;;;;0.90;0.50;;;30.90;88.50;;;;;;5025466;28;20468;-82
2023/06/19 10:30:25;;;;;;;0.60;0.30;;;30.70;84.90;;;;;;5028261;28;20449;-81
2023/06/19 10:32:53;;;;;;;0.50;0.40;;;30.10;86.40;;;;;;5025018;28;20457;-82
2023/06/19 10:38:04;;;;;;;1.10;1.00;;;29.70;85.90;;;;;;5032586;28;20467;-81
2023/06/19 10:40:31;;;;;;;0.50;0.30;;;29.80;84.90;;;;;;5028681;28;20439;-80
2023/06/19 10:42:58;;;;;;;0.50;0.30;;;30.20;87.00;;;;;;5024738;28;20435;-81
2023/06/19 10:45:28;;;;;;;0.70;0.40;;;31.30;81.20;;;;;;5025882;28;20811;-79
2023/06/19 10:47:55;;;;;;;1.10;0.90;;;31.80;77.90;;;;;;5024900;28;20497;-80
2023/06/19 10:50:23;;;;;;;1.43;1.33;;;31.60;75.40;;;;;;5025063;28;20453;-80
2023/06/19 10:52:55;;;;;;;0.80;0.67;;;31.90;76.30;;;;;;5025262;28;20925;-81
2023/06/19 10:55:23;;;;;;;1.47;1.07;;;31.80;73.20;;;;;;5026160;28;20442;-80
2023/06/19 10:57:51;;;;;;;0.50;0.40;;;31.70;71.50;;;;;;5025799;28;20444;-81
2023/06/19 11:00:25;;;;;;;0.50;0.30;;;31.60;72.00;;;;;;5024462;28;20435;-82
2023/06/19 11:02:52;;;;;;;0.70;0.70;;;31.60;72.30;;;;;;5018285;28;20534;-81
2023/06/19 11:05:21;;;;;;;1.90;0.70;;;31.20;74.50;;;;;;5025787;28;20443;-82
2023/06/19 11:07:52;;;;;;;0.50;0.40;;;31.30;72.50;;;;;;5016568;28;20467;-81
2023/06/19 11:10:24;;;;;;;1.83;0.50;;;31.40;71.00;;;;;;5024624;28;20439;-80
2023/06/19 11:12:54;;;;;;;0.50;0.40;;;31.60;70.30;;;;;;5024724;28;20446;-78
2023/06/19 11:15:28;;;;;;;0.50;0.40;;;31.50;71.30;;;;;;5024415;28;20435;-79
2023/06/19 11:17:55;;;;;;;0.50;0.30;;;30.90;72.60;;;;;;5024836;28;20479;-81
2023/06/19 11:20:21;;;;;;;0.50;0.30;;;30.80;74.10;;;;;;5025034;28;20455;-79
2023/06/19 11:22:48;;;;;;;0.50;0.30;;;31.20;74.20;;;;;;5025111;28;20477;-81
2023/06/19 11:25:15;;;;;;;0.50;0.30;;;31.60;72.10;;;;;;5025214;28;20939;-81
2023/06/19 11:27:51;;;;;;;0.50;0.30;;;31.80;70.50;;;;;;5024005;28;20471;-79
2023/06/19 11:30:20;;;;;;;0.83;0.80;;;31.60;69.70;;;;;;5024810;28;20440;-80
2023/06/19 11:32:48;;;;;;;0.50;0.50;;;31.20;70.00;;;;;;5024652;28;20443;-81
2023/06/19 11:35:17;;;;;;;1.23;0.80;;;30.70;71.10;;;;;;5024694;28;20947;-80
2023/06/19 11:37:44;;;;;;;0.67;0.53;;;30.60;69.30;;;;;;5023337;28;20458;-81
2023/06/19 11:40:15;;;;;;;0.50;0.40;;;30.40;73.60;;;;;;5022197;28;20453;-81
2023/06/19 11:42:47;;;;;;;0.50;0.30;;;30.70;71.90;;;;;;5024450;28;21038;-81
2023/06/19 11:45:14;;;;;;;1.50;1.17;;;30.80;72.40;;;;;;5025091;28;20455;-81
2023/06/19 11:47:41;;;;;;;1.13;1.03;;;30.50;69.50;;;;;;5024895;28;20463;-80
2023/06/19 11:50:09;;;;;;;0.87;0.87;;;30.50;70.10;;;;;;5024031;28;20471;-81
2023/06/19 11:52:36;;;;;;;0.50;0.40;;;30.70;68.80;;;;;;5024268;28;20459;-79
2023/06/19 11:55:02;;;;;;;0.50;0.50;;;30.90;66.80;;;;;;5024621;28;20466;-81
2023/06/19 11:57:29;;;;;;;0.50;0.50;;;31.70;68.50;;;;;;5023877;28;20522;-79
2023/06/19 11:59:57;;;;;;;0.60;0.40;;;32.50;66.10;;;;;;5024770;28;20446;-80
2023/06/19 12:02:24;;;;;;;0.70;0.70;;;33.10;62.90;;;;;;5023368;28;20483;-80
2023/06/19 12:04:51;;;;;;;1.07;0.63;;;32.80;62.60;;;;;;5024667;28;20542;-82
2023/06/19 12:07:17;;;;;;;0.50;0.30;;;32.90;63.10;;;;;;5023844;28;20467;-81
2023/06/19 12:09:44;;;;;;;0.57;0.40;;;33.00;63.00;;;;;;5024616;28;20444;-78
2023/06/19 12:12:11;;;;;;;1.17;1.07;;;33.40;61.10;;;;;;5024505;28;20443;-81
2023/06/19 12:14:39;;;;;;;2.87;0.77;;;33.80;61.10;;;;;;5023825;28;20444;-78
2023/06/19 12:17:08;;;;;;;0.50;0.40;;;33.80;58.40;;;;;;5024304;28;20466;-82
2023/06/19 12:19:34;;;;;;;0.40;0.30;;;34.00;59.00;;;;;;5024378;28;20439;-81
2023/06/19 12:22:01;;;;;;;1.53;1.43;;;33.90;59.20;;;;;;5024735;28;20472;-82
2023/06/19 12:24:28;;;;;;;0.83;0.83;;;34.00;58.70;;;;;;5024129;28;20475;-81
2023/06/19 12:26:55;;;;;;;0.60;0.50;;;33.60;58.00;;;;;;5024479;28;20463;-82
2023/06/19 12:29:21;;;;;;;0.50;0.40;;;33.80;57.80;;;;;;5024340;28;20450;-82
2023/06/19 12:31:48;;;;;;;1.87;1.70;;;34.20;57.50;;;;;;5023081;28;20450;-81
2023/06/19 12:34:17;;;;;;;0.50;0.50;;;33.80;56.70;;;;;;5024359;28;20518;-81
2023/06/19 12:36:44;;;;;;;3.57;1.50;;;33.50;57.20;;;;;;5023193;28;20531;-81
2023/06/19 12:39:16;;;;;;;0.70;0.43;;;33.70;57.10;;;;;;5023724;28;20537;-81
2023/06/19 12:41:42;;;;;;;0.50;0.30;;;33.60;56.70;;;;;;5023660;28;20478;-82
2023/06/19 12:44:09;;;;;;;0.40;0.30;;;33.40;56.90;;;;;;5023557;28;20534;-81
2023/06/19 12:46:36;;;;;;;0.50;0.30;;;32.70;56.90;;;;;;5024064;28;20954;-80
2023/06/19 12:49:03;;;;;;;0.60;0.60;;;32.00;57.60;;;;;;5023460;28;20514;-82
2023/06/19 12:51:31;;;;;;;0.50;0.30;;;31.60;58.60;;;;;;5023023;28;20440;-81
2023/06/19 12:53:58;;;;;;;1.87;0.63;;;31.30;59.30;;;;;;5023055;28;20443;-80